sensor_id;sensor_type;location;lat;lon;timestamp;temperature;humidity
9537;DHT22;4807;48.024;11.726;2023-03-23T00:00:20;7.70;98.90
9537;DHT22;4807;48.024;11.726;2023-03-23T00:03:30;7.70;98.90
9537;DHT22;4807;48.024;11.726;2023-03-23T00:06:37;7.70;98.80
9537;DHT22;4807;48.024;11.726;2023-03-23T00:09:44;7.70;98.80
9537;DHT22;4807;48.024;11.726;2023-03-23T00:12:52;7.70;98.90
9537;DHT22;4807;48.024;11.726;2023-03-23T00:16:02;7.70;98.90
9537;DHT22;4807;48.024;11.726;2023-03-23T00:19:12;7.70;98.90
9537;DHT22;4807;48.024;11.726;2023-03-23T00:22:19;7.70;99.10
9537;DHT22;4807;48.024;11.726;2023-03-23T00:25:27;7.70;98.80
9537;DHT22;4807;48.024;11.726;2023-03-23T00:28:34;7.80;98.70
9537;DHT22;4807;48.024;11.726;2023-03-23T00:31:42;7.80;98.50
9537;DHT22;4807;48.024;11.726;2023-03-23T00:34:53;7.90;98.50
9537;DHT22;4807;48.024;11.726;2023-03-23T00:38:02;7.90;98.40
9537;DHT22;4807;48.024;11.726;2023-03-23T00:41:10;7.90;98.00
9537;DHT22;4807;48.024;11.726;2023-03-23T00:44:18;7.90;98.30
9537;DHT22;4807;48.024;11.726;2023-03-23T00:47:29;7.90;98.30
9537;DHT22;4807;48.024;11.726;2023-03-23T00:50:44;7.90;98.40
9537;DHT22;4807;48.024;11.726;2023-03-23T00:53:52;7.90;98.50
9537;DHT22;4807;48.024;11.726;2023-03-23T00:57:00;7.90;98.50
9537;DHT22;4807;48.024;11.726;2023-03-23T01:00:10;7.80;98.70
9537;DHT22;4807;48.024;11.726;2023-03-23T01:03:18;7.90;98.80
9537;DHT22;4807;48.024;11.726;2023-03-23T01:06:27;7.80;98.80
9537;DHT22;4807;48.024;11.726;2023-03-23T01:09:36;7.80;98.90
9537;DHT22;4807;48.024;11.726;2023-03-23T01:12:47;5.70;97.90
9537;DHT22;4807;48.024;11.726;2023-03-23T01:15:54;7.90;98.90
9537;DHT22;4807;48.024;11.726;2023-03-23T01:19:02;7.90;98.90
9537;DHT22;4807;48.024;11.726;2023-03-23T01:22:10;7.90;98.80
9537;DHT22;4807;48.024;11.726;2023-03-23T01:25:17;8.00;98.80
9537;DHT22;4807;48.024;11.726;2023-03-23T01:28:25;8.10;98.70
9537;DHT22;4807;48.024;11.726;2023-03-23T01:31:32;8.10;98.70
9537;DHT22;4807;48.024;11.726;2023-03-23T01:34:40;8.10;98.90
9537;DHT22;4807;48.024;11.726;2023-03-23T01:37:48;8.00;99.00
9537;DHT22;4807;48.024;11.726;2023-03-23T01:40:55;7.90;99.00
9537;DHT22;4807;48.024;11.726;2023-03-23T01:44:06;7.90;99.20
9537;DHT22;4807;48.024;11.726;2023-03-23T01:47:22;7.90;99.30
9537;DHT22;4807;48.024;11.726;2023-03-23T01:50:38;8.00;99.30
9537;DHT22;4807;48.024;11.726;2023-03-23T01:53:55;8.00;99.20
9537;DHT22;4807;48.024;11.726;2023-03-23T01:57:07;8.10;99.10
9537;DHT22;4807;48.024;11.726;2023-03-23T02:00:20;8.00;99.20
9537;DHT22;4807;48.024;11.726;2023-03-23T02:03:32;8.00;99.40
9537;DHT22;4807;48.024;11.726;2023-03-23T02:06:44;6.70;98.90
9537;DHT22;4807;48.024;11.726;2023-03-23T02:09:58;8.00;99.50
9537;DHT22;4807;48.024;11.726;2023-03-23T02:13:09;8.10;99.30
9537;DHT22;4807;48.024;11.726;2023-03-23T02:16:27;8.00;99.50
9537;DHT22;4807;48.024;11.726;2023-03-23T02:20:01;8.00;99.60
9537;DHT22;4807;48.024;11.726;2023-03-23T02:23:37;7.90;99.70
9537;DHT22;4807;48.024;11.726;2023-03-23T02:27:04;7.90;99.50
9537;DHT22;4807;48.024;11.726;2023-03-23T02:30:25;7.90;99.70
9537;DHT22;4807;48.024;11.726;2023-03-23T02:33:46;7.80;99.90
9537;DHT22;4807;48.024;11.726;2023-03-23T02:37:00;7.90;99.70
9537;DHT22;4807;48.024;11.726;2023-03-23T02:40:14;7.90;99.90
9537;DHT22;4807;48.024;11.726;2023-03-23T02:43:28;7.90;99.90
9537;DHT22;4807;48.024;11.726;2023-03-23T02:46:39;8.00;99.80
9537;DHT22;4807;48.024;11.726;2023-03-23T02:49:53;8.00;99.80
9537;DHT22;4807;48.024;11.726;2023-03-23T02:53:03;8.00;99.80
9537;DHT22;4807;48.024;11.726;2023-03-23T02:56:14;8.00;99.80
9537;DHT22;4807;48.024;11.726;2023-03-23T02:59:23;8.00;99.60
9537;DHT22;4807;48.024;11.726;2023-03-23T03:02:32;8.00;99.80
9537;DHT22;4807;48.024;11.726;2023-03-23T03:05:53;7.80;99.90
9537;DHT22;4807;48.024;11.726;2023-03-23T03:09:15;7.70;99.90
9537;DHT22;4807;48.024;11.726;2023-03-23T03:12:34;7.70;99.90
9537;DHT22;4807;48.024;11.726;2023-03-23T03:15:54;7.60;99.90
9537;DHT22;4807;48.024;11.726;2023-03-23T03:19:14;7.60;99.90
9537;DHT22;4807;48.024;11.726;2023-03-23T03:22:29;7.50;99.90
9537;DHT22;4807;48.024;11.726;2023-03-23T03:25:37;7.30;99.90
9537;DHT22;4807;48.024;11.726;2023-03-23T03:28:47;7.30;99.90
9537;DHT22;4807;48.024;11.726;2023-03-23T03:32:02;7.30;99.90
9537;DHT22;4807;48.024;11.726;2023-03-23T03:35:12;7.30;99.90
9537;DHT22;4807;48.024;11.726;2023-03-23T03:38:22;7.30;99.90
9537;DHT22;4807;48.024;11.726;2023-03-23T03:41:31;7.20;99.90
9537;DHT22;4807;48.024;11.726;2023-03-23T03:44:39;7.20;99.90
9537;DHT22;4807;48.024;11.726;2023-03-23T03:47:47;7.20;99.90
9537;DHT22;4807;48.024;11.726;2023-03-23T03:50:55;7.30;99.90
9537;DHT22;4807;48.024;11.726;2023-03-23T03:54:04;7.30;99.90
9537;DHT22;4807;48.024;11.726;2023-03-23T03:57:11;7.20;99.90
9537;DHT22;4807;48.024;11.726;2023-03-23T04:00:37;7.10;99.90
9537;DHT22;4807;48.024;11.726;2023-03-23T04:03:45;7.10;99.90
9537;DHT22;4807;48.024;11.726;2023-03-23T04:06:58;6.90;99.90
9537;DHT22;4807;48.024;11.726;2023-03-23T04:10:10;6.90;99.90
9537;DHT22;4807;48.024;11.726;2023-03-23T04:13:21;6.80;99.90
9537;DHT22;4807;48.024;11.726;2023-03-23T04:16:55;6.80;99.90
9537;DHT22;4807;48.024;11.726;2023-03-23T04:20:06;6.80;99.90
9537;DHT22;4807;48.024;11.726;2023-03-23T04:23:21;6.80;99.90
9537;DHT22;4807;48.024;11.726;2023-03-23T04:26:32;6.80;99.90
9537;DHT22;4807;48.024;11.726;2023-03-23T04:29:48;6.90;99.90
9537;DHT22;4807;48.024;11.726;2023-03-23T04:33:23;6.90;99.90
9537;DHT22;4807;48.024;11.726;2023-03-23T04:36:33;6.90;99.90
9537;DHT22;4807;48.024;11.726;2023-03-23T04:39:48;6.90;99.90
9537;DHT22;4807;48.024;11.726;2023-03-23T04:42:56;7.00;99.90
9537;DHT22;4807;48.024;11.726;2023-03-23T04:46:21;6.10;99.90
9537;DHT22;4807;48.024;11.726;2023-03-23T04:49:31;7.00;99.90
9537;DHT22;4807;48.024;11.726;2023-03-23T04:52:51;6.90;99.90
9537;DHT22;4807;48.024;11.726;2023-03-23T04:56:00;6.90;99.90
9537;DHT22;4807;48.024;11.726;2023-03-23T04:59:14;7.00;99.90
9537;DHT22;4807;48.024;11.726;2023-03-23T05:02:38;7.20;99.90
9537;DHT22;4807;48.024;11.726;2023-03-23T05:05:48;7.20;99.90
9537;DHT22;4807;48.024;11.726;2023-03-23T05:09:00;7.10;99.90
9537;DHT22;4807;48.024;11.726;2023-03-23T05:12:10;7.10;99.90
9537;DHT22;4807;48.024;11.726;2023-03-23T05:15:30;7.20;99.90
9537;DHT22;4807;48.024;11.726;2023-03-23T05:18:38;8.80;99.90
9537;DHT22;4807;48.024;11.726;2023-03-23T05:21:48;7.10;99.90
9537;DHT22;4807;48.024;11.726;2023-03-23T05:24:56;7.10;99.90
9537;DHT22;4807;48.024;11.726;2023-03-23T05:28:03;7.20;99.90
9537;DHT22;4807;48.024;11.726;2023-03-23T05:31:28;7.30;99.90
9537;DHT22;4807;48.024;11.726;2023-03-23T05:34:36;7.30;99.90
9537;DHT22;4807;48.024;11.726;2023-03-23T05:37:44;7.30;99.90
9537;DHT22;4807;48.024;11.726;2023-03-23T05:40:52;7.50;99.90
9537;DHT22;4807;48.024;11.726;2023-03-23T05:44:06;7.60;99.90
9537;DHT22;4807;48.024;11.726;2023-03-23T05:47:26;7.70;99.90
9537;DHT22;4807;48.024;11.726;2023-03-23T05:50:37;7.90;99.90
9537;DHT22;4807;48.024;11.726;2023-03-23T05:53:45;7.90;99.90
9537;DHT22;4807;48.024;11.726;2023-03-23T05:56:54;7.90;99.90
9537;DHT22;4807;48.024;11.726;2023-03-23T06:00:13;8.00;99.90
9537;DHT22;4807;48.024;11.726;2023-03-23T06:03:28;8.00;99.90
9537;DHT22;4807;48.024;11.726;2023-03-23T06:06:41;8.00;99.90
9537;DHT22;4807;48.024;11.726;2023-03-23T06:09:50;8.00;99.90
9537;DHT22;4807;48.024;11.726;2023-03-23T06:13:03;8.00;99.90
9537;DHT22;4807;48.024;11.726;2023-03-23T06:16:24;8.10;99.90
9537;DHT22;4807;48.024;11.726;2023-03-23T06:19:37;8.30;99.90
9537;DHT22;4807;48.024;11.726;2023-03-23T06:22:49;8.40;99.90
9537;DHT22;4807;48.024;11.726;2023-03-23T06:26:07;8.50;99.90
9537;DHT22;4807;48.024;11.726;2023-03-23T06:29:20;8.60;99.90
9537;DHT22;4807;48.024;11.726;2023-03-23T06:32:33;8.70;99.90
9537;DHT22;4807;48.024;11.726;2023-03-23T06:35:44;8.80;99.90
9537;DHT22;4807;48.024;11.726;2023-03-23T06:39:23;8.90;99.90
9537;DHT22;4807;48.024;11.726;2023-03-23T06:42:48;9.00;99.90
9537;DHT22;4807;48.024;11.726;2023-03-23T06:46:13;8.90;99.90
9537;DHT22;4807;48.024;11.726;2023-03-23T06:49:20;8.90;99.90
9537;DHT22;4807;48.024;11.726;2023-03-23T06:52:41;9.00;99.90
9537;DHT22;4807;48.024;11.726;2023-03-23T06:55:52;9.00;99.90
9537;DHT22;4807;48.024;11.726;2023-03-23T06:58:59;9.10;99.90
9537;DHT22;4807;48.024;11.726;2023-03-23T07:02:08;9.30;99.90
9537;DHT22;4807;48.024;11.726;2023-03-23T07:05:17;9.40;99.90
9537;DHT22;4807;48.024;11.726;2023-03-23T07:08:30;9.60;99.90
9537;DHT22;4807;48.024;11.726;2023-03-23T07:11:38;9.80;99.80
9537;DHT22;4807;48.024;11.726;2023-03-23T07:14:55;9.90;99.70
9537;DHT22;4807;48.024;11.726;2023-03-23T07:18:06;10.10;99.10
9537;DHT22;4807;48.024;11.726;2023-03-23T07:21:21;10.20;98.50
9537;DHT22;4807;48.024;11.726;2023-03-23T07:24:30;10.40;98.30
9537;DHT22;4807;48.024;11.726;2023-03-23T07:27:49;10.50;98.10
9537;DHT22;4807;48.024;11.726;2023-03-23T07:30:57;10.80;97.90
9537;DHT22;4807;48.024;11.726;2023-03-23T07:34:05;11.00;97.70
9537;DHT22;4807;48.024;11.726;2023-03-23T07:37:32;11.20;97.10
9537;DHT22;4807;48.024;11.726;2023-03-23T07:40:41;11.30;96.70
9537;DHT22;4807;48.024;11.726;2023-03-23T07:43:55;11.50;96.70
9537;DHT22;4807;48.024;11.726;2023-03-23T07:51:32;12.80;96.30
9537;DHT22;4807;48.024;11.726;2023-03-23T07:54:41;12.80;94.90
9537;DHT22;4807;48.024;11.726;2023-03-23T07:58:11;13.20;94.50
9537;DHT22;4807;48.024;11.726;2023-03-23T08:01:24;13.40;94.00
9537;DHT22;4807;48.024;11.726;2023-03-23T08:04:54;13.60;93.80
9537;DHT22;4807;48.024;11.726;2023-03-23T08:08:25;13.90;93.60
9537;DHT22;4807;48.024;11.726;2023-03-23T08:11:58;14.20;92.90
9537;DHT22;4807;48.024;11.726;2023-03-23T08:15:27;14.60;92.30
9537;DHT22;4807;48.024;11.726;2023-03-23T08:18:47;15.10;92.20
9537;DHT22;4807;48.024;11.726;2023-03-23T08:22:22;15.60;90.80
9537;DHT22;4807;48.024;11.726;2023-03-23T08:25:57;16.20;87.90
9537;DHT22;4807;48.024;11.726;2023-03-23T08:29:25;16.50;87.40
9537;DHT22;4807;48.024;11.726;2023-03-23T08:32:56;16.70;85.90
9537;DHT22;4807;48.024;11.726;2023-03-23T08:36:33;16.60;84.90
9537;DHT22;4807;48.024;11.726;2023-03-23T08:39:59;16.50;86.30
9537;DHT22;4807;48.024;11.726;2023-03-23T08:43:30;16.30;86.60
9537;DHT22;4807;48.024;11.726;2023-03-23T08:46:57;16.20;87.20
9537;DHT22;4807;48.024;11.726;2023-03-23T08:50:25;16.00;87.60
9537;DHT22;4807;48.024;11.726;2023-03-23T08:53:54;15.80;88.60
9537;DHT22;4807;48.024;11.726;2023-03-23T08:57:23;15.70;88.30
9537;DHT22;4807;48.024;11.726;2023-03-23T09:00:49;15.90;87.00
9537;DHT22;4807;48.024;11.726;2023-03-23T09:04:06;15.80;87.70
9537;DHT22;4807;48.024;11.726;2023-03-23T09:07:34;15.90;87.80
9537;DHT22;4807;48.024;11.726;2023-03-23T09:10:41;15.80;88.00
9537;DHT22;4807;48.024;11.726;2023-03-23T09:13:48;15.80;88.70
9537;DHT22;4807;48.024;11.726;2023-03-23T09:16:56;15.80;88.50
9537;DHT22;4807;48.024;11.726;2023-03-23T09:20:04;15.90;88.20
9537;DHT22;4807;48.024;11.726;2023-03-23T09:23:17;16.00;88.60
9537;DHT22;4807;48.024;11.726;2023-03-23T09:26:26;16.10;88.00
9537;DHT22;4807;48.024;11.726;2023-03-23T09:29:33;16.30;88.50
9537;DHT22;4807;48.024;11.726;2023-03-23T09:32:41;16.40;87.50
9537;DHT22;4807;48.024;11.726;2023-03-23T09:35:49;16.50;88.30
9537;DHT22;4807;48.024;11.726;2023-03-23T09:38:58;16.50;88.10
9537;DHT22;4807;48.024;11.726;2023-03-23T09:42:13;16.50;89.30
9537;DHT22;4807;48.024;11.726;2023-03-23T09:45:34;16.70;88.40
9537;DHT22;4807;48.024;11.726;2023-03-23T09:48:50;17.00;87.40
9537;DHT22;4807;48.024;11.726;2023-03-23T09:52:01;18.10;87.20
9537;DHT22;4807;48.024;11.726;2023-03-23T09:55:14;17.60;84.10
9537;DHT22;4807;48.024;11.726;2023-03-23T09:58:26;17.30;83.10
9537;DHT22;4807;48.024;11.726;2023-03-23T10:01:41;16.90;87.60
9537;DHT22;4807;48.024;11.726;2023-03-23T10:04:55;17.30;87.60
9537;DHT22;4807;48.024;11.726;2023-03-23T10:08:09;17.60;84.70
9537;DHT22;4807;48.024;11.726;2023-03-23T10:11:30;17.20;82.20
9537;DHT22;4807;48.024;11.726;2023-03-23T10:15:02;18.00;77.30
9537;DHT22;4807;48.024;11.726;2023-03-23T10:18:19;18.00;77.90
9537;DHT22;4807;48.024;11.726;2023-03-23T10:21:32;18.60;75.90
9537;DHT22;4807;48.024;11.726;2023-03-23T10:24:49;18.60;74.80
9537;DHT22;4807;48.024;11.726;2023-03-23T10:28:05;19.00;74.30
9537;DHT22;4807;48.024;11.726;2023-03-23T10:31:20;19.10;71.30
9537;DHT22;4807;48.024;11.726;2023-03-23T10:34:32;19.10;73.00
9537;DHT22;4807;48.024;11.726;2023-03-23T10:37:50;18.70;73.40
9537;DHT22;4807;48.024;11.726;2023-03-23T10:41:06;18.60;74.70
9537;DHT22;4807;48.024;11.726;2023-03-23T10:44:22;18.50;75.00
9537;DHT22;4807;48.024;11.726;2023-03-23T10:47:32;17.80;75.60
9537;DHT22;4807;48.024;11.726;2023-03-23T10:50:43;17.30;77.70
9537;DHT22;4807;48.024;11.726;2023-03-23T10:53:58;17.20;78.40
9537;DHT22;4807;48.024;11.726;2023-03-23T10:57:20;16.80;82.40
9537;DHT22;4807;48.024;11.726;2023-03-23T11:00:32;16.50;81.40
9537;DHT22;4807;48.024;11.726;2023-03-23T11:03:41;16.70;83.60
9537;DHT22;4807;48.024;11.726;2023-03-23T11:06:57;16.90;84.40
9537;DHT22;4807;48.024;11.726;2023-03-23T11:10:17;16.50;84.20
9537;DHT22;4807;48.024;11.726;2023-03-23T11:13:31;16.50;81.90
9537;DHT22;4807;48.024;11.726;2023-03-23T11:16:44;16.80;81.70
9537;DHT22;4807;48.024;11.726;2023-03-23T11:19:52;16.80;81.70
9537;DHT22;4807;48.024;11.726;2023-03-23T11:23:01;16.90;82.90
9537;DHT22;4807;48.024;11.726;2023-03-23T11:26:17;17.30;81.30
9537;DHT22;4807;48.024;11.726;2023-03-23T11:29:28;17.80;80.40
9537;DHT22;4807;48.024;11.726;2023-03-23T11:32:43;18.40;78.40
9537;DHT22;4807;48.024;11.726;2023-03-23T11:35:53;18.60;77.50
9537;DHT22;4807;48.024;11.726;2023-03-23T11:39:19;18.70;75.30
9537;DHT22;4807;48.024;11.726;2023-03-23T11:42:36;18.80;71.90
9537;DHT22;4807;48.024;11.726;2023-03-23T11:45:50;19.20;72.60
9537;DHT22;4807;48.024;11.726;2023-03-23T11:49:10;19.40;70.00
9537;DHT22;4807;48.024;11.726;2023-03-23T11:52:31;19.60;68.70
9537;DHT22;4807;48.024;11.726;2023-03-23T11:55:58;19.80;70.00
9537;DHT22;4807;48.024;11.726;2023-03-23T11:59:15;20.10;69.90
9537;DHT22;4807;48.024;11.726;2023-03-23T12:02:36;20.10;67.70
9537;DHT22;4807;48.024;11.726;2023-03-23T12:06:15;20.20;68.30
9537;DHT22;4807;48.024;11.726;2023-03-23T12:09:40;20.00;67.80
9537;DHT22;4807;48.024;11.726;2023-03-23T12:13:05;19.90;64.90
9537;DHT22;4807;48.024;11.726;2023-03-23T12:16:28;19.00;65.20
9537;DHT22;4807;48.024;11.726;2023-03-23T12:19:53;19.70;65.80
9537;DHT22;4807;48.024;11.726;2023-03-23T12:23:22;19.80;66.90
9537;DHT22;4807;48.024;11.726;2023-03-23T12:26:32;19.90;66.70
9537;DHT22;4807;48.024;11.726;2023-03-23T12:29:53;20.10;69.10
9537;DHT22;4807;48.024;11.726;2023-03-23T12:33:21;20.30;66.20
9537;DHT22;4807;48.024;11.726;2023-03-23T12:36:48;20.30;64.40
9537;DHT22;4807;48.024;11.726;2023-03-23T12:40:28;19.80;66.00
9537;DHT22;4807;48.024;11.726;2023-03-23T12:43:59;19.70;66.90
9537;DHT22;4807;48.024;11.726;2023-03-23T12:47:17;19.80;65.10
9537;DHT22;4807;48.024;11.726;2023-03-23T12:50:39;19.60;63.90
9537;DHT22;4807;48.024;11.726;2023-03-23T12:53:55;19.40;63.30
9537;DHT22;4807;48.024;11.726;2023-03-23T12:57:12;19.10;64.80
9537;DHT22;4807;48.024;11.726;2023-03-23T13:00:26;19.10;65.60
9537;DHT22;4807;48.024;11.726;2023-03-23T13:03:42;19.30;64.60
9537;DHT22;4807;48.024;11.726;2023-03-23T13:06:54;19.50;65.80
9537;DHT22;4807;48.024;11.726;2023-03-23T13:10:05;19.80;64.50
9537;DHT22;4807;48.024;11.726;2023-03-23T13:13:24;20.10;61.80
9537;DHT22;4807;48.024;11.726;2023-03-23T13:16:51;20.30;63.90
9537;DHT22;4807;48.024;11.726;2023-03-23T13:20:17;20.20;62.00
9537;DHT22;4807;48.024;11.726;2023-03-23T13:23:40;20.10;62.00
9537;DHT22;4807;48.024;11.726;2023-03-23T13:26:50;19.80;61.60
9537;DHT22;4807;48.024;11.726;2023-03-23T13:29:59;19.40;59.70
9537;DHT22;4807;48.024;11.726;2023-03-23T13:33:12;19.30;60.90
9537;DHT22;4807;48.024;11.726;2023-03-23T13:36:28;19.20;60.10
9537;DHT22;4807;48.024;11.726;2023-03-23T13:39:38;19.10;60.50
9537;DHT22;4807;48.024;11.726;2023-03-23T13:42:58;19.20;62.50
9537;DHT22;4807;48.024;11.726;2023-03-23T13:46:11;19.40;60.00
9537;DHT22;4807;48.024;11.726;2023-03-23T13:49:32;19.50;60.40
9537;DHT22;4807;48.024;11.726;2023-03-23T13:52:50;19.20;57.60
9537;DHT22;4807;48.024;11.726;2023-03-23T13:56:13;19.00;60.10
9537;DHT22;4807;48.024;11.726;2023-03-23T13:59:35;19.00;60.50
9537;DHT22;4807;48.024;11.726;2023-03-23T14:03:01;19.10;60.90
9537;DHT22;4807;48.024;11.726;2023-03-23T14:06:13;19.20;61.20
9537;DHT22;4807;48.024;11.726;2023-03-23T14:09:48;19.20;60.00
9537;DHT22;4807;48.024;11.726;2023-03-23T14:12:55;19.30;59.50
9537;DHT22;4807;48.024;11.726;2023-03-23T14:16:16;19.10;59.70
9537;DHT22;4807;48.024;11.726;2023-03-23T14:19:29;19.00;60.50
9537;DHT22;4807;48.024;11.726;2023-03-23T14:22:38;18.90;61.70
9537;DHT22;4807;48.024;11.726;2023-03-23T14:25:55;18.90;62.40
9537;DHT22;4807;48.024;11.726;2023-03-23T14:29:12;18.90;62.50
9537;DHT22;4807;48.024;11.726;2023-03-23T14:32:20;19.00;62.60
9537;DHT22;4807;48.024;11.726;2023-03-23T14:35:34;19.00;63.10
9537;DHT22;4807;48.024;11.726;2023-03-23T14:38:44;18.80;62.00
9537;DHT22;4807;48.024;11.726;2023-03-23T14:41:53;18.40;64.40
9537;DHT22;4807;48.024;11.726;2023-03-23T14:45:05;18.50;65.00
9537;DHT22;4807;48.024;11.726;2023-03-23T14:48:17;18.60;64.20
9537;DHT22;4807;48.024;11.726;2023-03-23T14:51:26;18.80;64.10
9537;DHT22;4807;48.024;11.726;2023-03-23T14:54:33;18.90;64.40
9537;DHT22;4807;48.024;11.726;2023-03-23T14:57:41;18.90;65.20
9537;DHT22;4807;48.024;11.726;2023-03-23T15:00:53;19.00;65.30
9537;DHT22;4807;48.024;11.726;2023-03-23T15:04:06;18.90;65.10
9537;DHT22;4807;48.024;11.726;2023-03-23T15:07:19;18.70;64.70
9537;DHT22;4807;48.024;11.726;2023-03-23T15:10:30;18.60;66.00
9537;DHT22;4807;48.024;11.726;2023-03-23T15:13:43;18.40;66.30
9537;DHT22;4807;48.024;11.726;2023-03-23T15:16:54;18.20;66.40
9537;DHT22;4807;48.024;11.726;2023-03-23T15:20:09;18.00;66.00
9537;DHT22;4807;48.024;11.726;2023-03-23T15:23:28;17.70;66.80
9537;DHT22;4807;48.024;11.726;2023-03-23T15:26:42;17.50;66.90
9537;DHT22;4807;48.024;11.726;2023-03-23T15:29:52;17.30;68.40
9537;DHT22;4807;48.024;11.726;2023-03-23T15:33:02;17.20;68.60
9537;DHT22;4807;48.024;11.726;2023-03-23T15:36:16;17.20;68.60
9537;DHT22;4807;48.024;11.726;2023-03-23T15:39:27;17.10;69.70
9537;DHT22;4807;48.024;11.726;2023-03-23T15:42:34;17.10;69.50
9537;DHT22;4807;48.024;11.726;2023-03-23T15:45:52;17.00;69.80
9537;DHT22;4807;48.024;11.726;2023-03-23T15:49:08;17.00;70.70
9537;DHT22;4807;48.024;11.726;2023-03-23T15:52:19;16.80;72.00
9537;DHT22;4807;48.024;11.726;2023-03-23T15:55:35;16.90;71.60
9537;DHT22;4807;48.024;11.726;2023-03-23T15:58:44;16.80;71.80
9537;DHT22;4807;48.024;11.726;2023-03-23T16:01:53;16.80;72.50
9537;DHT22;4807;48.024;11.726;2023-03-23T16:05:02;16.70;72.60
9537;DHT22;4807;48.024;11.726;2023-03-23T16:08:11;16.50;73.30
9537;DHT22;4807;48.024;11.726;2023-03-23T16:11:23;16.50;72.80
9537;DHT22;4807;48.024;11.726;2023-03-23T16:14:33;16.50;74.00
9537;DHT22;4807;48.024;11.726;2023-03-23T16:17:41;14.90;73.30
9537;DHT22;4807;48.024;11.726;2023-03-23T16:20:51;16.20;74.60
9537;DHT22;4807;48.024;11.726;2023-03-23T16:23:59;16.10;75.40
9537;DHT22;4807;48.024;11.726;2023-03-23T16:27:10;15.90;75.50
9537;DHT22;4807;48.024;11.726;2023-03-23T16:30:21;15.90;77.50
9537;DHT22;4807;48.024;11.726;2023-03-23T16:33:31;15.80;79.20
9537;DHT22;4807;48.024;11.726;2023-03-23T16:36:40;15.70;80.60
9537;DHT22;4807;48.024;11.726;2023-03-23T16:39:48;15.60;81.60
9537;DHT22;4807;48.024;11.726;2023-03-23T16:42:58;15.50;82.70
9537;DHT22;4807;48.024;11.726;2023-03-23T16:46:08;15.30;83.70
9537;DHT22;4807;48.024;11.726;2023-03-23T16:49:19;15.10;85.80
9537;DHT22;4807;48.024;11.726;2023-03-23T16:52:27;14.90;88.30
9537;DHT22;4807;48.024;11.726;2023-03-23T16:55:36;14.90;87.40
9537;DHT22;4807;48.024;11.726;2023-03-23T16:58:46;14.80;88.30
9537;DHT22;4807;48.024;11.726;2023-03-23T17:01:55;14.70;90.20
9537;DHT22;4807;48.024;11.726;2023-03-23T17:05:10;14.60;89.00
9537;DHT22;4807;48.024;11.726;2023-03-23T17:08:19;14.60;89.60
9537;DHT22;4807;48.024;11.726;2023-03-23T17:11:28;14.50;90.20
9537;DHT22;4807;48.024;11.726;2023-03-23T17:14:38;14.40;90.00
9537;DHT22;4807;48.024;11.726;2023-03-23T17:17:47;14.30;90.30
9537;DHT22;4807;48.024;11.726;2023-03-23T17:20:55;14.30;89.80
9537;DHT22;4807;48.024;11.726;2023-03-23T17:24:04;14.30;90.20
9537;DHT22;4807;48.024;11.726;2023-03-23T17:27:12;14.10;90.70
9537;DHT22;4807;48.024;11.726;2023-03-23T17:30:22;14.10;90.30
9537;DHT22;4807;48.024;11.726;2023-03-23T17:33:31;14.00;91.10
9537;DHT22;4807;48.024;11.726;2023-03-23T17:36:40;13.90;91.50
9537;DHT22;4807;48.024;11.726;2023-03-23T17:39:48;13.80;91.70
9537;DHT22;4807;48.024;11.726;2023-03-23T17:42:56;13.80;92.10
9537;DHT22;4807;48.024;11.726;2023-03-23T17:46:07;13.70;92.50
9537;DHT22;4807;48.024;11.726;2023-03-23T17:49:16;13.60;92.10
9537;DHT22;4807;48.024;11.726;2023-03-23T17:52:25;13.60;92.40
9537;DHT22;4807;48.024;11.726;2023-03-23T17:55:33;13.50;92.50
9537;DHT22;4807;48.024;11.726;2023-03-23T17:58:43;11.40;91.80
9537;DHT22;4807;48.024;11.726;2023-03-23T18:01:52;13.50;93.10
9537;DHT22;4807;48.024;11.726;2023-03-23T18:05:01;13.40;93.20
9537;DHT22;4807;48.024;11.726;2023-03-23T18:08:09;13.50;92.80
9537;DHT22;4807;48.024;11.726;2023-03-23T18:11:17;13.40;92.90
9537;DHT22;4807;48.024;11.726;2023-03-23T18:14:26;13.40;92.50
9537;DHT22;4807;48.024;11.726;2023-03-23T18:17:35;13.30;92.70
9537;DHT22;4807;48.024;11.726;2023-03-23T18:20:45;13.30;92.70
9537;DHT22;4807;48.024;11.726;2023-03-23T18:23:54;13.20;92.70
9537;DHT22;4807;48.024;11.726;2023-03-23T18:27:05;13.10;92.70
9537;DHT22;4807;48.024;11.726;2023-03-23T18:30:14;13.10;92.90
9537;DHT22;4807;48.024;11.726;2023-03-23T18:33:23;13.10;92.80
9537;DHT22;4807;48.024;11.726;2023-03-23T18:36:32;13.10;92.50
9537;DHT22;4807;48.024;11.726;2023-03-23T18:39:40;13.20;92.60
9537;DHT22;4807;48.024;11.726;2023-03-23T18:42:49;13.30;92.40
9537;DHT22;4807;48.024;11.726;2023-03-23T18:45:57;13.20;92.40
9537;DHT22;4807;48.024;11.726;2023-03-23T18:49:07;13.10;92.40
9537;DHT22;4807;48.024;11.726;2023-03-23T18:52:15;13.00;92.60
9537;DHT22;4807;48.024;11.726;2023-03-23T18:55:23;12.90;92.80
9537;DHT22;4807;48.024;11.726;2023-03-23T18:58:31;12.90;92.60
9537;DHT22;4807;48.024;11.726;2023-03-23T19:01:40;12.80;92.80
9537;DHT22;4807;48.024;11.726;2023-03-23T19:04:50;12.80;92.80
9537;DHT22;4807;48.024;11.726;2023-03-23T19:07:58;12.70;93.00
9537;DHT22;4807;48.024;11.726;2023-03-23T19:11:06;12.80;92.70
9537;DHT22;4807;48.024;11.726;2023-03-23T19:14:15;12.70;92.90
9537;DHT22;4807;48.024;11.726;2023-03-23T19:17:25;12.80;92.80
9537;DHT22;4807;48.024;11.726;2023-03-23T19:20:35;12.70;92.90
9537;DHT22;4807;48.024;11.726;2023-03-23T19:24:04;12.70;93.10
9537;DHT22;4807;48.024;11.726;2023-03-23T19:27:13;12.70;93.40
9537;DHT22;4807;48.024;11.726;2023-03-23T19:30:22;12.60;93.20
9537;DHT22;4807;48.024;11.726;2023-03-23T19:33:30;12.60;93.30
9537;DHT22;4807;48.024;11.726;2023-03-23T19:36:40;12.60;93.30
9537;DHT22;4807;48.024;11.726;2023-03-23T19:40:00;12.60;93.70
9537;DHT22;4807;48.024;11.726;2023-03-23T19:43:32;12.70;93.70
9537;DHT22;4807;48.024;11.726;2023-03-23T19:46:43;12.70;94.30
9537;DHT22;4807;48.024;11.726;2023-03-23T19:49:53;12.60;94.40
9537;DHT22;4807;48.024;11.726;2023-03-23T19:53:03;12.50;94.70
9537;DHT22;4807;48.024;11.726;2023-03-23T19:56:13;12.40;95.00
9537;DHT22;4807;48.024;11.726;2023-03-23T19:59:23;12.40;95.40
9537;DHT22;4807;48.024;11.726;2023-03-23T20:02:33;12.30;95.50
9537;DHT22;4807;48.024;11.726;2023-03-23T20:05:41;12.30;95.70
9537;DHT22;4807;48.024;11.726;2023-03-23T20:08:51;12.30;95.80
9537;DHT22;4807;48.024;11.726;2023-03-23T20:11:59;12.30;96.20
9537;DHT22;4807;48.024;11.726;2023-03-23T20:15:08;12.30;96.30
9537;DHT22;4807;48.024;11.726;2023-03-23T20:18:16;12.20;96.50
9537;DHT22;4807;48.024;11.726;2023-03-23T20:21:24;12.10;96.60
9537;DHT22;4807;48.024;11.726;2023-03-23T20:24:34;12.10;96.70
9537;DHT22;4807;48.024;11.726;2023-03-23T20:27:44;12.10;97.00
9537;DHT22;4807;48.024;11.726;2023-03-23T20:31:00;12.00;96.80
9537;DHT22;4807;48.024;11.726;2023-03-23T20:34:28;12.10;97.10
9537;DHT22;4807;48.024;11.726;2023-03-23T20:37:38;12.10;97.00
9537;DHT22;4807;48.024;11.726;2023-03-23T20:40:48;12.00;97.10
9537;DHT22;4807;48.024;11.726;2023-03-23T20:43:57;11.90;97.30
9537;DHT22;4807;48.024;11.726;2023-03-23T20:47:06;11.90;97.40
9537;DHT22;4807;48.024;11.726;2023-03-23T20:50:16;11.90;97.50
9537;DHT22;4807;48.024;11.726;2023-03-23T20:53:25;12.00;97.30
9537;DHT22;4807;48.024;11.726;2023-03-23T20:56:37;12.00;97.20